Wetterdaten: aktuell Sonntag, 04.12.2016 11:00
Datum Zeit Temperatur Feuchte Luftdruck Regen Wind Richtung Richtung Taupunkt Windchill
04.12.2016 11:00 -0,8 C 81 % 1028,2 hPa 0,0 l/m 0,0 km/h (0 Bft) - - 0 -3,6 C -0,8 C
04.12.2016 10:00 -2,4 C 84 % 1028,3 hPa 0,0 l/m 0,0 km/h (0 Bft) - - 0 -4,7 C -2,4 C
04.12.2016 09:00 -2,8 C 86 % 1027,3 hPa 0,0 l/m 0,0 km/h (0 Bft) - - 0 -4,8 C -2,8 C
04.12.2016 08:00 -2,9 C 85 % 1027,3 hPa 0,0 l/m 0,0 km/h (0 Bft) - - 0 -5,1 C -2,9 C
04.12.2016 07:00 -2,7 C 86 % 1027,3 hPa 0,0 l/m 0,0 km/h (0 Bft) - - 0 -4,7 C -2,7 C
04.12.2016 06:00 -2,2 C 86 % 1027,3 hPa 0,0 l/m 0,0 km/h (0 Bft) - - 0 -4,2 C -2,2 C
04.12.2016 05:00 -2,0 C 87 % 1027,3 hPa 0,0 l/m 0,0 km/h (0 Bft) - - 0 -3,9 C -2,0 C
04.12.2016 04:00 -1,6 C 89 % 1027,2 hPa 0,0 l/m 0,0 km/h (0 Bft) - - 0 -3,2 C -1,6 C
04.12.2016 03:00 -2,0 C 90 % 1027,3 hPa 0,0 l/m 0,0 km/h (0 Bft) - - 0 -3,4 C -2,0 C
04.12.2016 02:00 -1,5 C 89 % 1027,2 hPa 0,0 l/m 0,0 km/h (0 Bft) - - 0 -3,1 C -1,5 C
04.12.2016 01:00 -0,8 C 90 % 1027,1 hPa 0,0 l/m 0,0 km/h (0 Bft) - - 0 -2,2 C -0,8 C
04.12.2016 00:00 -0,5 C 90 % 1027,1 hPa 0,0 l/m 0,0 km/h (0 Bft) - - 0 -1,9 C -0,5 C
03.12.2016 23:00 -0,2 C 91 % 1027,1 hPa 0,0 l/m 0,0 km/h (0 Bft) - - 0 -1,5 C -0,2 C
03.12.2016 22:00 0,3 C 91 % 1027,0 hPa 0,0 l/m 0,0 km/h (0 Bft) - - 0 -1,0 C 0,3 C
03.12.2016 21:00 0,6 C 91 % 1027,0 hPa 0,0 l/m 0,0 km/h (0 Bft) - - 0 -0,7 C 0,6 C
03.12.2016 20:00 0,4 C 90 % 1027,0 hPa 0,0 l/m 0,0 km/h (0 Bft) - - 0 -1,0 C 0,4 C
03.12.2016 19:00 0,6 C 89 % 1027,0 hPa 0,0 l/m 0,0 km/h (0 Bft) - - 0 -1,0 C 0,6 C
03.12.2016 18:00 1,2 C 88 % 1025,9 hPa 0,0 l/m 0,0 km/h (0 Bft) - - 0 -0,6 C 1,2 C
03.12.2016 17:00 2,4 C 86 % 1025,8 hPa 0,0 l/m 0,0 km/h (0 Bft) - - 0 0,3 C 2,4 C
03.12.2016 16:00 4,3 C 85 % 1025,7 hPa 0,0 l/m 0,0 km/h (0 Bft) - - 0 2,0 C 4,3 C
03.12.2016 15:00 4,9 C 88 % 1025,6 hPa 0,0 l/m 0,0 km/h (0 Bft) - - 0 3,1 C 4,9 C
03.12.2016 14:00 4,8 C 90 % 1025,6 hPa 0,0 l/m 0,0 km/h (0 Bft) - - 0 3,3 C 4,8 C
03.12.2016 13:00 4,0 C 92 % 1025,7 hPa 0,4 l/m 0,0 km/h (0 Bft) - - 0 2,8 C 4,0 C
03.12.2016 12:00 2,3 C 95 % 1025,8 hPa 0,0 l/m 0,0 km/h (0 Bft) - - 0 1,6 C 2,3 C
_ Min-Zeit 08:06 10:57 14:18 - 12:00 - - 08:00 08:06
Minimum _ -3,0 C 81 % 1025,6 hPa - 0,0 km/h (0 Bft) - - -5,1 C -3,0 C
_ Max-Zeit 14:18 12:00 09:21 12:48 12:00 - - 14:18 14:18
Maximum _ 5,1 C 95 % 1028,4 hPa 0,4 l/m 0,0 km/h
- - (0 Bft)
- - 3,4 C 5,1 C
Durchschnitt _ 0,3 C 89 % 1026,8 hPa #0,4 l/m 0,0 km/h (0 Bft) - - - -1,3 C 0,3 C